Terminal Aerodrome Forecast
Issued by NWS Flagstaff, AZ

Home | Current Version | Previous Version | Text Only | Print | Product List | Glossary On
Versions: 1 2 3 4 5 6 7 8 9 10 11 12
000
FTUS45 KFGZ 162300
TAFINW
TAF
KINW 162334Z 1700/1724 14015G22KT P6SM VCSH SCT060 BKN110
     FM170200 16008KT P6SM SCT060 BKN100
     FM171200 11012KT P6SM SCT050 OVC090 PROB30 1715/1721 4SM -TSRA
      BKN040CB=

USA.gov is the U.S. government's official web portal to all federal, state and local government web resources and services.